createdAt,value
2022-11-14T00:00:16.583Z,45.42
2022-11-14T00:03:03.678Z,44.85
2022-11-14T00:05:48.737Z,42.33
2022-11-14T00:08:35.004Z,40.72
2022-11-14T00:11:20.079Z,41.45
2022-11-14T00:14:06.669Z,41.80
2022-11-14T00:16:51.785Z,42.20
2022-11-14T00:19:37.002Z,40.92
2022-11-14T00:22:22.368Z,41.38
2022-11-14T00:25:08.010Z,39.83
2022-11-14T00:27:57.083Z,38.65
2022-11-14T00:30:46.001Z,43.28
2022-11-14T00:33:31.085Z,39.30
2022-11-14T00:36:16.308Z,43.00
2022-11-14T00:39:01.741Z,41.38
2022-11-14T00:41:47.069Z,42.72
2022-11-14T00:44:32.419Z,43.45
2022-11-14T00:47:17.640Z,44.30
2022-11-14T00:50:04.259Z,41.50
2022-11-14T00:52:49.267Z,40.38
2022-11-14T00:55:35.343Z,39.50
2022-11-14T00:58:20.649Z,41.95
2022-11-14T01:01:06.130Z,41.47
2022-11-14T01:03:52.397Z,42.90
2022-11-14T01:06:37.403Z,41.20
2022-11-14T01:09:22.649Z,40.95
2022-11-14T01:12:08.273Z,38.80
2022-11-14T01:14:53.422Z,42.30
2022-11-14T01:17:38.591Z,44.42
2022-11-14T01:20:23.851Z,40.28
2022-11-14T01:23:10.711Z,37.97
2022-11-14T01:26:04.866Z,41.25
2022-11-14T01:28:50.262Z,34.90
2022-11-14T01:31:35.622Z,38.03
2022-11-14T01:34:21.148Z,38.58
2022-11-14T01:37:06.287Z,36.20
2022-11-14T01:39:51.419Z,39.72
2022-11-14T01:42:36.590Z,39.30
2022-11-14T01:46:00.713Z,38.30
2022-11-14T01:49:06.334Z,35.28
2022-11-14T01:52:02.279Z,35.35
2022-11-14T01:54:51.740Z,36.13
2022-11-14T01:57:41.050Z,36.60
2022-11-14T02:00:25.937Z,35.08
2022-11-14T02:03:14.155Z,39.55
2022-11-14T02:06:01.496Z,38.35
2022-11-14T02:08:48.739Z,41.58
2022-11-14T02:11:39.292Z,41.38
2022-11-14T02:14:24.728Z,39.85
2022-11-14T02:20:20.029Z,38.35
2022-11-14T02:23:05.430Z,42.42
2022-11-14T02:25:50.881Z,37.30
2022-11-14T02:28:36.131Z,37.42
2022-11-14T02:31:21.411Z,38.50
2022-11-14T02:34:07.025Z,37.15
2022-11-14T02:36:52.382Z,43.75
2022-11-14T02:39:39.004Z,40.72
2022-11-14T02:42:24.155Z,41.83
2022-11-14T02:45:12.164Z,37.42
2022-11-14T02:47:57.319Z,37.95
2022-11-14T02:50:42.874Z,39.20
2022-11-14T02:53:28.031Z,35.10
2022-11-14T02:56:13.308Z,33.33
2022-11-14T02:58:58.778Z,38.70
2022-11-14T03:01:44.043Z,37.88
2022-11-14T03:04:29.195Z,41.28
2022-11-14T03:07:14.574Z,39.70
2022-11-14T03:09:59.842Z,35.35
2022-11-14T03:12:45.035Z,39.40
2022-11-14T03:15:30.445Z,40.90
2022-11-14T03:18:15.737Z,39.45
2022-11-14T03:21:10.909Z,40.25
2022-11-14T03:23:55.931Z,37.50
2022-11-14T03:26:40.812Z,40.75
2022-11-14T03:29:26.430Z,38.50
2022-11-14T03:32:11.588Z,34.50
2022-11-14T03:34:56.821Z,36.03
2022-11-14T03:37:42.133Z,37.97
2022-11-14T03:40:27.400Z,38.22
2022-11-14T03:43:12.845Z,40.05
2022-11-14T03:45:59.822Z,40.28
2022-11-14T03:48:45.341Z,36.53
2022-11-14T03:51:30.754Z,37.33
2022-11-14T03:54:16.037Z,37.75
2022-11-14T03:57:01.418Z,37.95
2022-11-14T03:59:46.575Z,36.90
2022-11-14T04:02:31.912Z,35.17
2022-11-14T04:05:17.265Z,40.17
2022-11-14T04:08:05.711Z,33.65
2022-11-14T04:10:50.880Z,37.08
2022-11-14T04:13:36.221Z,37.08
2022-11-14T04:16:21.402Z,41.08
2022-11-14T04:19:06.776Z,37.17
2022-11-14T04:21:51.686Z,38.70
2022-11-14T04:24:37.085Z,40.45
2022-11-14T04:27:22.090Z,39.05
2022-11-14T04:30:08.050Z,35.33
2022-11-14T04:32:53.166Z,38.38
2022-11-14T04:35:38.800Z,38.15
2022-11-14T04:38:23.860Z,40.22
2022-11-14T04:41:09.181Z,39.25
2022-11-14T04:43:54.386Z,38.65
2022-11-14T04:46:39.767Z,36.45
2022-11-14T04:49:24.956Z,36.70
2022-11-14T04:52:10.380Z,39.67
2022-11-14T04:54:55.618Z,40.42
2022-11-14T04:57:40.893Z,36.67
2022-11-14T05:00:26.087Z,39.85
2022-11-14T05:03:11.391Z,37.88
2022-11-14T05:06:01.065Z,39.10
2022-11-14T05:08:46.290Z,34.35
2022-11-14T05:11:31.481Z,39.97
2022-11-14T05:14:16.890Z,35.55
2022-11-14T05:17:02.095Z,37.20
2022-11-14T05:19:47.389Z,34.40
2022-11-14T05:22:32.381Z,34.80
2022-11-14T05:25:17.909Z,37.55
2022-11-14T05:28:03.304Z,36.15
2022-11-14T05:30:48.504Z,38.20
2022-11-14T05:33:35.059Z,36.53
2022-11-14T05:36:20.125Z,38.67
2022-11-14T05:39:05.290Z,36.35
2022-11-14T05:41:50.532Z,39.70
2022-11-14T05:44:35.766Z,37.35
2022-11-14T05:47:21.410Z,37.47
2022-11-14T05:50:07.131Z,38.83
2022-11-14T05:52:52.454Z,38.40
2022-11-14T05:55:37.711Z,37.13
2022-11-14T05:58:22.798Z,41.72
2022-11-14T06:01:14.099Z,42.28
2022-11-14T06:03:59.363Z,41.45
2022-11-14T06:06:44.844Z,37.83
2022-11-14T06:09:29.982Z,39.80
2022-11-14T06:12:15.252Z,42.80
2022-11-14T06:15:00.457Z,40.85
2022-11-14T06:17:45.859Z,41.90
2022-11-14T06:20:30.959Z,38.25
2022-11-14T06:23:19.447Z,42.47
2022-11-14T06:26:12.727Z,43.15
2022-11-14T06:28:59.026Z,41.83
2022-11-14T06:31:43.911Z,37.45
2022-11-14T06:34:29.336Z,39.17
2022-11-14T06:37:14.622Z,37.22
2022-11-14T06:39:59.883Z,40.25
2022-11-14T06:42:45.206Z,38.22
2022-11-14T06:45:30.685Z,41.70
2022-11-14T06:48:16.100Z,42.38
2022-11-14T06:51:02.300Z,43.83
2022-11-14T06:53:47.345Z,38.45
2022-11-14T06:56:32.644Z,37.47
2022-11-14T06:59:17.935Z,38.10
2022-11-14T07:02:03.274Z,33.72
2022-11-14T07:04:48.703Z,36.90
2022-11-14T07:07:34.160Z,39.30
2022-11-14T07:10:19.489Z,36.53
2022-11-14T07:13:04.866Z,38.03
2022-11-14T07:15:53.758Z,38.58
2022-11-14T07:18:38.927Z,37.33
2022-11-14T07:21:25.732Z,34.05
2022-11-14T07:24:11.199Z,34.92
2022-11-14T07:26:56.287Z,36.58
2022-11-14T07:29:41.720Z,34.42
2022-11-14T07:32:26.990Z,34.88
2022-11-14T07:35:12.377Z,37.70
2022-11-14T07:38:04.585Z,35.85
2022-11-14T07:41:11.881Z,34.78
2022-11-14T07:43:57.200Z,32.78
2022-11-14T07:46:42.473Z,34.95
2022-11-14T07:49:27.866Z,37.17
2022-11-14T07:52:13.101Z,32.22
2022-11-14T07:54:58.547Z,29.15
2022-11-14T07:57:48.839Z,27.10
2022-11-14T08:00:34.775Z,31.48
2022-11-14T08:03:20.210Z,29.88
2022-11-14T08:06:12.749Z,31.15
2022-11-14T08:08:57.872Z,30.48
2022-11-14T08:11:49.655Z,32.80
2022-11-14T08:14:35.403Z,27.23
2022-11-14T08:17:21.651Z,26.50
2022-11-14T08:20:08.894Z,27.35
2022-11-14T08:23:07.016Z,26.63
2022-11-14T08:25:52.653Z,28.48
2022-11-14T08:28:37.780Z,27.63
2022-11-14T08:31:23.361Z,25.65
2022-11-14T08:34:08.505Z,25.10
2022-11-14T08:36:53.921Z,24.13
2022-11-14T08:39:39.128Z,24.58
2022-11-14T08:42:24.091Z,26.17
2022-11-14T08:45:09.608Z,24.70
2022-11-14T08:47:54.569Z,25.85
2022-11-14T08:50:41.196Z,25.15
2022-11-14T08:53:26.356Z,25.65
2022-11-14T08:56:11.867Z,23.48
2022-11-14T08:58:57.110Z,28.40
2022-11-14T09:01:42.888Z,23.80
2022-11-14T09:04:28.819Z,24.63
2022-11-14T09:07:13.969Z,23.92
2022-11-14T09:09:59.232Z,24.95
2022-11-14T09:12:44.487Z,24.77
2022-11-14T09:15:30.014Z,27.75
2022-11-14T09:18:15.443Z,27.90
2022-11-14T09:21:06.136Z,29.05
2022-11-14T09:23:51.627Z,23.17
2022-11-14T09:26:36.881Z,24.13
2022-11-14T09:29:22.154Z,25.08
2022-11-14T09:32:07.317Z,23.08
2022-11-14T09:34:52.464Z,24.05
2022-11-14T09:37:37.800Z,24.08
2022-11-14T09:40:23.241Z,21.63
2022-11-14T09:43:29.220Z,23.48
2022-11-14T09:46:19.034Z,24.15
2022-11-14T09:49:11.668Z,23.83
2022-11-14T09:52:14.019Z,26.15
2022-11-14T09:55:04.288Z,23.63
2022-11-14T09:57:49.764Z,21.88
2022-11-14T10:00:50.707Z,23.08
2022-11-14T10:03:51.553Z,23.65
2022-11-14T10:07:29.950Z,22.90
2022-11-14T10:10:43.801Z,21.90
2022-11-14T10:14:11.185Z,23.55
2022-11-14T10:17:21.856Z,21.83
2022-11-14T10:20:15.973Z,22.10
2022-11-14T10:23:45.739Z,22.15
2022-11-14T10:26:37.756Z,23.90
2022-11-14T10:30:05.785Z,20.15
2022-11-14T10:33:02.329Z,21.98
2022-11-14T10:35:55.290Z,22.17
2022-11-14T10:39:18.812Z,21.00
2022-11-14T10:42:11.650Z,18.15
2022-11-14T10:45:11.595Z,23.50
2022-11-14T10:48:37.506Z,21.70
2022-11-14T10:51:36.004Z,21.45
2022-11-14T10:54:45.992Z,18.40
2022-11-14T10:57:31.713Z,20.25
2022-11-14T11:00:19.898Z,20.15
2022-11-14T11:03:07.600Z,19.58
2022-11-14T11:05:57.715Z,24.00
2022-11-14T11:09:02.218Z,20.73
2022-11-14T11:11:57.657Z,19.85
2022-11-14T11:14:44.429Z,20.98
2022-11-14T11:17:35.940Z,20.38
2022-11-14T11:20:30.507Z,19.63
2022-11-14T11:23:15.668Z,19.52
2022-11-14T11:26:07.745Z,19.75
2022-11-14T11:29:06.432Z,17.65
2022-11-14T11:31:58.199Z,18.17
2022-11-14T11:34:43.450Z,20.85
2022-11-14T11:37:32.951Z,18.95
2022-11-14T11:40:25.276Z,20.25
2022-11-14T11:43:38.397Z,17.42
2022-11-14T11:46:50.284Z,18.02
2022-11-14T11:49:53.016Z,21.40
2022-11-14T11:52:46.253Z,16.95
2022-11-14T11:55:39.938Z,17.75
2022-11-14T11:58:49.617Z,16.92
2022-11-14T12:01:35.166Z,17.98
2022-11-14T12:04:21.078Z,19.83
2022-11-14T12:07:17.203Z,18.02
2022-11-14T12:10:11.815Z,17.35
2022-11-14T12:13:35.580Z,16.75
2022-11-14T12:16:54.754Z,15.48
2022-11-14T12:19:54.880Z,19.52
2022-11-14T12:22:59.540Z,17.00
2022-11-14T12:26:12.227Z,16.25
2022-11-14T12:29:25.661Z,16.83
2022-11-14T12:32:18.760Z,16.98
2022-11-14T12:35:07.304Z,18.20
2022-11-14T12:37:56.040Z,16.30
2022-11-14T12:40:49.585Z,17.88
2022-11-14T12:43:41.662Z,18.92
2022-11-14T12:46:27.336Z,20.30
2022-11-14T12:49:38.869Z,17.67
2022-11-14T12:52:43.874Z,18.25
2022-11-14T12:55:29.015Z,16.65
2022-11-14T12:58:20.466Z,21.40
2022-11-14T13:01:14.054Z,18.60
2022-11-14T13:04:06.506Z,17.50
2022-11-14T13:07:34.741Z,17.95
2022-11-14T13:10:30.782Z,16.27
2022-11-14T13:13:35.642Z,19.00
2022-11-14T13:16:49.656Z,19.40
2022-11-14T13:19:53.644Z,16.83
2022-11-14T13:22:43.710Z,20.40
2022-11-14T13:25:29.413Z,19.00
2022-11-14T13:28:53.121Z,18.95
2022-11-14T13:31:48.616Z,20.80
2022-11-14T13:34:50.298Z,18.15
2022-11-14T13:38:01.086Z,17.50
2022-11-14T13:40:54.962Z,16.88
2022-11-14T13:44:22.031Z,15.32
2022-11-14T13:47:34.368Z,16.50
2022-11-14T13:50:36.785Z,17.50
2022-11-14T13:53:26.257Z,17.67
2022-11-14T13:56:33.112Z,14.20
2022-11-14T13:59:30.435Z,13.20
2022-11-14T14:02:35.269Z,14.60
2022-11-14T14:05:50.185Z,15.88
2022-11-14T14:08:35.051Z,14.85
2022-11-14T14:11:23.177Z,15.55
2022-11-14T14:14:14.292Z,17.98
2022-11-14T14:17:08.214Z,13.85
2022-11-14T14:20:00.305Z,14.77
2022-11-14T14:23:02.588Z,16.50
2022-11-14T14:25:48.917Z,15.90
2022-11-14T14:29:03.601Z,15.40
2022-11-14T14:31:51.915Z,15.80
2022-11-14T14:34:37.018Z,15.60
2022-11-14T14:37:29.225Z,13.55
2022-11-14T14:40:23.851Z,15.68
2022-11-14T14:43:23.734Z,16.20
2022-11-14T14:46:09.345Z,15.98
2022-11-14T14:48:55.070Z,16.77
2022-11-14T14:51:42.804Z,14.52
2022-11-14T14:54:32.014Z,17.13
2022-11-14T14:57:22.572Z,19.42
2022-11-14T15:00:21.850Z,16.63
2022-11-14T15:03:10.165Z,16.13
2022-11-14T15:06:03.616Z,17.67
2022-11-14T15:08:49.732Z,16.48
2022-11-14T15:11:39.506Z,17.02
2022-11-14T15:14:29.196Z,14.88
2022-11-14T15:17:15.665Z,21.73
2022-11-14T15:20:00.731Z,14.90
2022-11-14T15:23:03.118Z,16.77
2022-11-14T15:25:48.428Z,15.90
2022-11-14T15:28:33.990Z,16.75
2022-11-14T15:31:21.657Z,19.10
2022-11-14T15:34:28.794Z,17.88
2022-11-14T15:37:13.823Z,18.55
2022-11-14T15:40:17.035Z,16.80
2022-11-14T15:43:40.948Z,20.33
2022-11-14T15:46:37.844Z,17.73
2022-11-14T15:49:25.666Z,16.27
2022-11-14T15:52:24.502Z,17.30
2022-11-14T15:55:18.566Z,19.10
2022-11-14T15:58:27.331Z,15.65
2022-11-14T16:01:19.400Z,19.00
2022-11-14T16:04:04.925Z,17.50
2022-11-14T16:06:50.544Z,18.70
2022-11-14T16:09:36.147Z,17.35
2022-11-14T16:12:21.294Z,15.70
2022-11-14T16:15:06.952Z,16.00
2022-11-14T16:17:52.143Z,16.48
2022-11-14T16:20:39.531Z,16.27
2022-11-14T16:23:24.716Z,14.20
2022-11-14T16:26:10.085Z,15.77
2022-11-14T16:28:57.038Z,14.85
2022-11-14T16:31:42.700Z,15.40
2022-11-14T16:34:27.903Z,14.93
2022-11-14T16:37:14.263Z,16.83
2022-11-14T16:39:59.982Z,21.80
2022-11-14T16:42:46.389Z,17.90
2022-11-14T16:45:31.598Z,17.63
2022-11-14T16:48:17.110Z,17.10
2022-11-14T16:51:14.800Z,17.73
2022-11-14T16:54:07.763Z,25.30
2022-11-14T16:56:53.041Z,23.42
2022-11-14T16:59:38.356Z,21.02
2022-11-14T17:02:24.482Z,20.05
2022-11-14T17:05:09.687Z,17.80
2022-11-14T17:07:57.892Z,16.20
2022-11-14T17:10:45.051Z,17.98
2022-11-14T17:13:31.821Z,24.08
2022-11-14T17:16:18.046Z,53.60
2022-11-14T17:19:03.757Z,91.60
2022-11-14T17:21:49.301Z,38.28
2022-11-14T17:24:34.457Z,21.83
2022-11-14T17:27:19.791Z,21.67
2022-11-14T17:30:05.741Z,23.27
2022-11-14T17:32:56.128Z,20.63
2022-11-14T17:35:41.587Z,21.13
2022-11-14T17:38:27.036Z,25.67
2022-11-14T17:41:12.510Z,21.20
2022-11-14T17:44:01.766Z,25.08
2022-11-14T17:46:48.203Z,22.80
2022-11-14T17:49:33.915Z,21.95
2022-11-14T17:52:19.094Z,21.48
2022-11-14T17:55:04.688Z,22.42
2022-11-14T17:57:49.871Z,22.65
2022-11-14T18:00:35.736Z,22.92
2022-11-14T18:03:21.375Z,22.40
2022-11-14T18:06:12.240Z,23.77
2022-11-14T18:08:57.868Z,20.92
2022-11-14T18:11:43.179Z,20.15
2022-11-14T18:14:28.334Z,18.85
2022-11-14T18:17:13.725Z,19.85
2022-11-14T18:20:01.727Z,19.50
2022-11-14T18:22:46.777Z,19.23
2022-11-14T18:25:32.012Z,18.67
2022-11-14T18:28:17.639Z,16.85
2022-11-14T18:31:04.658Z,20.60
2022-11-14T18:33:52.636Z,24.30
2022-11-14T18:36:37.968Z,19.90
2022-11-14T18:39:23.272Z,22.85
2022-11-14T18:42:08.518Z,20.20
2022-11-14T18:44:54.107Z,18.63
2022-11-14T18:47:39.180Z,20.33
2022-11-14T18:50:24.530Z,20.15
2022-11-14T18:53:10.294Z,17.20
2022-11-14T18:55:55.728Z,18.75
2022-11-14T18:58:42.278Z,17.88
2022-11-14T19:01:29.691Z,17.83
2022-11-14T19:04:17.291Z,15.98
2022-11-14T19:07:02.874Z,17.92
2022-11-14T19:09:48.021Z,16.77
2022-11-14T19:12:33.269Z,20.83
2022-11-14T19:15:18.401Z,19.48
2022-11-14T19:18:03.739Z,17.80
2022-11-14T19:21:00.256Z,19.27
2022-11-14T19:23:45.575Z,20.25
2022-11-14T19:26:31.234Z,15.95
2022-11-14T19:29:16.517Z,16.17
2022-11-14T19:32:01.997Z,17.48
2022-11-14T19:34:47.205Z,18.23
2022-11-14T19:37:32.601Z,17.40
2022-11-14T19:40:17.878Z,20.73
2022-11-14T19:43:07.240Z,19.60
2022-11-14T19:45:52.384Z,19.92
2022-11-14T19:48:38.816Z,16.63
2022-11-14T19:51:24.550Z,17.45
2022-11-14T19:54:10.760Z,15.30
2022-11-14T19:56:56.109Z,15.45
2022-11-14T19:59:41.606Z,15.88
2022-11-14T20:02:28.571Z,20.15
2022-11-14T20:05:13.788Z,14.50
2022-11-14T20:07:59.076Z,16.48
2022-11-14T20:10:54.689Z,14.00
2022-11-14T20:13:42.373Z,14.50
2022-11-14T20:16:30.167Z,13.15
2022-11-14T20:19:16.134Z,17.13
2022-11-14T20:22:01.474Z,16.98
2022-11-14T20:24:47.028Z,16.35
2022-11-14T20:27:32.339Z,20.00
2022-11-14T20:30:17.641Z,17.48
2022-11-14T20:33:02.846Z,21.75
2022-11-14T20:35:48.368Z,17.77
2022-11-14T20:38:33.571Z,15.27
2022-11-14T20:41:19.761Z,14.48
2022-11-14T20:44:04.831Z,15.30
2022-11-14T20:46:50.225Z,15.70
2022-11-14T20:49:35.663Z,17.73
2022-11-14T20:52:21.374Z,17.85
2022-11-14T20:55:11.642Z,17.30
2022-11-14T20:57:57.558Z,20.50
2022-11-14T21:00:43.101Z,16.35
2022-11-14T21:03:28.690Z,18.55
2022-11-14T21:06:15.517Z,14.75
2022-11-14T21:09:00.728Z,17.25
2022-11-14T21:11:46.386Z,14.00
2022-11-14T21:14:31.334Z,15.93
2022-11-14T21:17:16.405Z,17.67
2022-11-14T21:20:01.610Z,15.32
2022-11-14T21:22:46.867Z,16.60
2022-11-14T21:25:32.387Z,17.33
2022-11-14T21:28:17.585Z,16.67
2022-11-14T21:31:14.936Z,17.80
2022-11-14T21:34:02.530Z,18.88
2022-11-14T21:36:49.296Z,21.08
2022-11-14T21:39:34.257Z,18.77
2022-11-14T21:42:19.638Z,16.05
2022-11-14T21:45:06.494Z,20.85
2022-11-14T21:47:51.770Z,15.55
2022-11-14T21:50:37.003Z,16.80
2022-11-14T21:53:22.193Z,15.20
2022-11-14T21:56:28.087Z,16.15
2022-11-14T21:59:18.782Z,17.30
2022-11-14T22:02:22.934Z,15.90
2022-11-14T22:05:08.703Z,17.50
2022-11-14T22:07:54.121Z,17.38
2022-11-14T22:10:39.415Z,16.02
2022-11-14T22:13:24.375Z,15.32
2022-11-14T22:16:11.472Z,15.90
2022-11-14T22:19:02.016Z,19.48
2022-11-14T22:21:49.998Z,18.83
2022-11-14T22:24:34.936Z,16.55
2022-11-14T22:27:20.203Z,15.73
2022-11-14T22:30:05.955Z,16.33
2022-11-14T22:32:51.499Z,19.13
2022-11-14T22:35:36.893Z,20.75
2022-11-14T22:38:22.146Z,15.60
2022-11-14T22:41:12.089Z,15.75
2022-11-14T22:43:58.113Z,15.30
2022-11-14T22:46:43.320Z,17.63
2022-11-14T22:49:28.772Z,19.27
2022-11-14T22:52:14.179Z,15.60
2022-11-14T22:54:59.421Z,14.52
2022-11-14T22:57:44.691Z,14.63
2022-11-14T23:00:29.886Z,15.27
2022-11-14T23:03:22.128Z,16.50
2022-11-14T23:06:08.708Z,15.85
2022-11-14T23:08:54.505Z,16.45
2022-11-14T23:11:39.682Z,15.32
2022-11-14T23:14:25.261Z,15.95
2022-11-14T23:17:10.848Z,17.05
2022-11-14T23:19:56.647Z,16.30
2022-11-14T23:22:41.794Z,16.00
2022-11-14T23:25:27.033Z,17.02
2022-11-14T23:28:12.353Z,14.00
2022-11-14T23:30:59.027Z,14.73
2022-11-14T23:33:44.002Z,16.45
2022-11-14T23:36:29.108Z,16.80
2022-11-14T23:39:14.677Z,17.05
2022-11-14T23:42:00.193Z,14.30
2022-11-14T23:44:45.334Z,17.27
2022-11-14T23:47:30.609Z,16.65
2022-11-14T23:50:15.653Z,16.00
2022-11-14T23:53:00.928Z,19.10
2022-11-14T23:55:58.488Z,17.52
2022-11-14T23:58:44.039Z,17.40
